Time;durP1;ratioP1;P1;durP2;ratioP2;P2;SDS_P1;SDS_P2;PMS_P1;PMS_P2;Temp;Humidity;BMP_temperature;BMP_pressure;BME280_temperature;BME280_humidity;BME280_pressure;Samples;Min_cycle;Max_cycle;Signal;HPM_P1;HPM_P2
2023/03/15 00:01:28;;;;;;;3.63;1.15;;;;;;;;;;8241531;28;20049;-76
2023/03/15 00:05:28;;;;;;;5.05;1.45;;;;;;;;;;8242666;28;20111;-76
2023/03/15 00:09:28;;;;;;;5.57;1.55;;;;;;;;;;8243256;28;20022;-75
2023/03/15 00:13:29;;;;;;;5.03;1.60;;;;;;;;;;8243116;28;20036;-76
2023/03/15 00:17:33;;;;;;;5.75;1.80;;;;;;;;;;8240235;28;21082;-76
2023/03/15 00:21:34;;;;;;;4.47;1.50;;;;;;;;;;8241866;28;20029;-76
2023/03/15 00:25:34;;;;;;;9.02;1.98;;;;;;;;;;8241363;28;20084;-76
2023/03/15 00:29:35;;;;;;;9.63;1.95;;;;;;;;;;8243379;28;21269;-76
2023/03/15 00:33:35;;;;;;;3.67;1.60;;;;;;;;;;8240695;28;20045;-76
2023/03/15 00:37:36;;;;;;;8.82;1.83;;;;;;;;;;8246567;28;20141;-76
2023/03/15 00:41:36;;;;;;;11.45;1.88;;;;;;;;;;8244252;28;20076;-76
2023/03/15 00:45:37;;;;;;;5.95;1.67;;;;;;;;;;8244274;28;20197;-75
2023/03/15 00:49:37;;;;;;;7.18;1.98;;;;;;;;;;8245388;28;20781;-76
2023/03/15 00:53:38;;;;;;;7.43;2.00;;;;;;;;;;8251525;28;20017;-76
2023/03/15 00:57:39;;;;;;;6.63;1.52;;;;;;;;;;8255333;28;20037;-76
2023/03/15 01:01:43;;;;;;;3.67;1.42;;;;;;;;;;8244626;28;20768;-76
2023/03/15 01:05:43;;;;;;;4.38;1.30;;;;;;;;;;8251845;28;20434;-76
2023/03/15 01:09:45;;;;;;;6.50;1.70;;;;;;;;;;8262159;28;20029;-76
2023/03/15 01:13:45;;;;;;;7.00;1.50;;;;;;;;;;8247104;28;20034;-76
2023/03/15 01:17:45;;;;;;;5.78;1.48;;;;;;;;;;8243657;28;20042;-76
2023/03/15 01:21:46;;;;;;;8.53;2.50;;;;;;;;;;8246856;28;20065;-76
2023/03/15 01:25:46;;;;;;;4.07;1.67;;;;;;;;;;8245018;28;20301;-76
2023/03/15 01:29:47;;;;;;;4.82;1.95;;;;;;;;;;8244854;28;20034;-76
2023/03/15 01:33:47;;;;;;;5.43;1.13;;;;;;;;;;8242599;28;20041;-76
2023/03/15 01:37:51;;;;;;;5.38;1.27;;;;;;;;;;8244439;28;20050;-76
2023/03/15 01:41:51;;;;;;;5.13;1.63;;;;;;;;;;8248101;28;20026;-76
2023/03/15 01:45:54;;;;;;;7.22;1.40;;;;;;;;;;8242015;28;20048;-75
2023/03/15 01:50:01;;;;;;;4.97;1.42;;;;;;;;;;8243197;28;20034;-76
2023/03/15 01:54:20;;;;;;;5.53;1.52;;;;;;;;;;8245017;28;20037;-76
2023/03/15 01:58:22;;;;;;;7.97;1.40;;;;;;;;;;8244302;28;20100;-75
2023/03/15 02:02:24;;;;;;;8.25;2.08;;;;;;;;;;8243680;28;20044;-75
2023/03/15 02:06:24;;;;;;;9.75;2.05;;;;;;;;;;8242881;28;20054;-76
2023/03/15 02:10:30;;;;;;;5.05;1.50;;;;;;;;;;8241037;28;20023;-76
2023/03/15 02:14:31;;;;;;;10.13;1.50;;;;;;;;;;8245388;28;20841;-75
2023/03/15 02:18:34;;;;;;;4.65;1.50;;;;;;;;;;8241887;28;20109;-75
2023/03/15 02:22:45;;;;;;;5.47;1.63;;;;;;;;;;8243791;28;20941;-75
2023/03/15 02:26:48;;;;;;;13.15;2.25;;;;;;;;;;8244028;28;20018;-75
2023/03/15 02:30:49;;;;;;;11.13;1.70;;;;;;;;;;8242188;28;20944;-76
2023/03/15 02:34:49;;;;;;;6.20;1.67;;;;;;;;;;8242193;28;20601;-76
2023/03/15 02:38:50;;;;;;;8.95;1.25;;;;;;;;;;8242409;28;20022;-75
2023/03/15 02:42:52;;;;;;;7.00;1.60;;;;;;;;;;8242815;28;20033;-75
2023/03/15 02:46:53;;;;;;;6.25;1.38;;;;;;;;;;8241712;28;20598;-76
2023/03/15 02:50:53;;;;;;;14.30;1.73;;;;;;;;;;8242718;28;20731;-76
2023/03/15 02:54:54;;;;;;;5.53;1.42;;;;;;;;;;8245320;28;20053;-75
2023/03/15 02:58:54;;;;;;;7.23;1.47;;;;;;;;;;8242473;28;20637;-76
2023/03/15 03:02:54;;;;;;;4.93;1.35;;;;;;;;;;8240651;28;20288;-76
2023/03/15 03:06:54;;;;;;;11.43;1.73;;;;;;;;;;8244131;28;20026;-76
2023/03/15 03:10:54;;;;;;;8.07;2.35;;;;;;;;;;8238829;28;20453;-76
2023/03/15 03:14:55;;;;;;;6.75;1.83;;;;;;;;;;8240712;28;20549;-76
2023/03/15 03:18:55;;;;;;;8.18;1.60;;;;;;;;;;8238107;28;20042;-75
2023/03/15 03:22:56;;;;;;;6.05;1.40;;;;;;;;;;8242586;28;20021;-77
2023/03/15 03:26:56;;;;;;;10.52;1.90;;;;;;;;;;8244751;28;20054;-75
2023/03/15 03:30:57;;;;;;;3.08;1.42;;;;;;;;;;8237663;28;20034;-75
2023/03/15 03:34:58;;;;;;;6.35;1.80;;;;;;;;;;8241875;28;20144;-76
2023/03/15 03:38:58;;;;;;;8.77;1.88;;;;;;;;;;8237926;28;20090;-75
2023/03/15 03:42:58;;;;;;;3.63;1.63;;;;;;;;;;8238382;28;20032;-75
2023/03/15 03:46:58;;;;;;;5.10;1.80;;;;;;;;;;8237845;28;20051;-76
2023/03/15 03:50:59;;;;;;;6.50;1.83;;;;;;;;;;8245125;28;20104;-76
2023/03/15 03:54:59;;;;;;;5.90;1.90;;;;;;;;;;8245453;28;20043;-75
2023/03/15 03:59:00;;;;;;;6.47;2.05;;;;;;;;;;8239498;28;20305;-76
2023/03/15 04:03:00;;;;;;;9.00;2.10;;;;;;;;;;8239334;28;20061;-75
2023/03/15 04:07:01;;;;;;;6.68;1.80;;;;;;;;;;8245208;28;20029;-76
2023/03/15 04:11:04;;;;;;;4.13;1.63;;;;;;;;;;8254038;28;20567;-75
2023/03/15 04:15:04;;;;;;;11.63;2.55;;;;;;;;;;8238168;28;20018;-76
2023/03/15 04:19:05;;;;;;;6.43;2.35;;;;;;;;;;8240773;28;20022;-75
2023/03/15 04:23:06;;;;;;;10.48;2.53;;;;;;;;;;8237147;28;20034;-75
2023/03/15 04:27:06;;;;;;;7.47;2.53;;;;;;;;;;8242079;28;20083;-76
2023/03/15 04:31:09;;;;;;;5.38;2.50;;;;;;;;;;8251782;28;20787;-75
2023/03/15 04:35:10;;;;;;;8.48;2.45;;;;;;;;;;8242879;28;20037;-75
2023/03/15 04:39:11;;;;;;;5.25;2.60;;;;;;;;;;8237919;28;20026;-75
2023/03/15 04:43:11;;;;;;;7.20;2.72;;;;;;;;;;8237023;28;20033;-75
2023/03/15 04:47:11;;;;;;;9.57;2.72;;;;;;;;;;8238151;28;20824;-75
2023/03/15 04:51:11;;;;;;;10.38;2.88;;;;;;;;;;8237771;28;20136;-76
2023/03/15 04:55:12;;;;;;;10.90;2.72;;;;;;;;;;8237534;28;20025;-75
2023/03/15 04:59:12;;;;;;;11.93;3.13;;;;;;;;;;8238453;28;20073;-75
2023/03/15 05:03:12;;;;;;;9.52;3.63;;;;;;;;;;8235611;28;20046;-75
2023/03/15 05:07:13;;;;;;;5.93;2.83;;;;;;;;;;8240373;28;20048;-75
2023/03/15 05:11:13;;;;;;;9.85;3.30;;;;;;;;;;8235766;28;20037;-75
2023/03/15 05:15:13;;;;;;;10.50;3.30;;;;;;;;;;8237057;28;20037;-75
2023/03/15 05:19:13;;;;;;;9.88;3.42;;;;;;;;;;8238662;28;20050;-75
2023/03/15 05:23:14;;;;;;;6.80;3.70;;;;;;;;;;8238641;28;20060;-75
2023/03/15 05:27:14;;;;;;;8.57;3.65;;;;;;;;;;8237071;28;20132;-75
2023/03/15 05:31:14;;;;;;;6.90;3.47;;;;;;;;;;8239156;28;20069;-75
2023/03/15 05:35:14;;;;;;;15.05;3.85;;;;;;;;;;8243565;28;20026;-77
2023/03/15 05:39:15;;;;;;;13.20;4.05;;;;;;;;;;8243386;28;20030;-76
2023/03/15 05:43:15;;;;;;;7.85;3.72;;;;;;;;;;8246764;28;20026;-77
2023/03/15 05:47:16;;;;;;;12.50;4.00;;;;;;;;;;8256819;28;20065;-77
2023/03/15 05:51:16;;;;;;;13.90;3.67;;;;;;;;;;8240503;28;20088;-77
2023/03/15 05:55:17;;;;;;;14.15;4.05;;;;;;;;;;8243275;28;20038;-77
2023/03/15 05:59:17;;;;;;;20.88;4.65;;;;;;;;;;8242409;28;20030;-77
2023/03/15 06:03:17;;;;;;;12.73;5.03;;;;;;;;;;8243368;28;20041;-77
2023/03/15 06:07:17;;;;;;;13.55;5.03;;;;;;;;;;8244972;28;20597;-77
2023/03/15 06:11:17;;;;;;;15.55;6.00;;;;;;;;;;8244502;28;20018;-78
2023/03/15 06:15:18;;;;;;;21.25;6.10;;;;;;;;;;8257823;28;20064;-78
2023/03/15 06:19:20;;;;;;;14.50;6.30;;;;;;;;;;8243913;28;20042;-78
2023/03/15 06:23:20;;;;;;;19.95;6.47;;;;;;;;;;8244628;28;20038;-77
2023/03/15 06:27:21;;;;;;;16.77;7.43;;;;;;;;;;8247352;28;20459;-77
2023/03/15 06:31:21;;;;;;;16.90;7.07;;;;;;;;;;8244874;28;20077;-77
2023/03/15 06:35:21;;;;;;;16.33;6.85;;;;;;;;;;8242560;28;20034;-77
2023/03/15 06:39:22;;;;;;;17.13;7.67;;;;;;;;;;8245093;28;20463;-78
2023/03/15 06:43:22;;;;;;;21.98;9.07;;;;;;;;;;8241990;28;20315;-77
2023/03/15 06:47:23;;;;;;;18.40;7.60;;;;;;;;;;8239861;28;20460;-77
2023/03/15 06:51:23;;;;;;;14.90;6.88;;;;;;;;;;8254914;28;20022;-78
2023/03/15 06:55:23;;;;;;;10.88;6.13;;;;;;;;;;8246580;28;20030;-78
2023/03/15 06:59:24;;;;;;;17.23;6.60;;;;;;;;;;8241236;28;20029;-78
2023/03/15 07:03:27;;;;;;;11.20;6.50;;;;;;;;;;8251825;28;20050;-77
2023/03/15 07:07:27;;;;;;;16.77;6.28;;;;;;;;;;8239548;28;20030;-77
2023/03/15 07:11:27;;;;;;;14.80;5.80;;;;;;;;;;8238933;28;20041;-77
2023/03/15 07:15:28;;;;;;;15.90;6.65;;;;;;;;;;8238746;28;20042;-76
2023/03/15 07:19:28;;;;;;;11.85;6.20;;;;;;;;;;8240811;28;20014;-76
2023/03/15 07:23:29;;;;;;;13.75;5.75;;;;;;;;;;8241320;28;20031;-76
2023/03/15 07:27:29;;;;;;;10.60;5.68;;;;;;;;;;8238469;28;20344;-71
2023/03/15 07:31:29;;;;;;;8.32;5.40;;;;;;;;;;8258386;28;20057;-77
2023/03/15 07:35:29;;;;;;;13.45;6.43;;;;;;;;;;8242046;28;20029;-77
2023/03/15 07:39:31;;;;;;;13.70;5.60;;;;;;;;;;8243137;28;20485;-77
2023/03/15 07:43:31;;;;;;;8.10;5.30;;;;;;;;;;8244749;28;20022;-76
2023/03/15 07:47:32;;;;;;;10.98;5.10;;;;;;;;;;8242141;28;20146;-77
2023/03/15 07:51:32;;;;;;;9.45;5.47;;;;;;;;;;8245219;28;20018;-77
2023/03/15 07:55:32;;;;;;;8.45;5.45;;;;;;;;;;8241148;28;20061;-77
2023/03/15 07:59:33;;;;;;;10.02;5.38;;;;;;;;;;8242420;28;20020;-77
2023/03/15 08:03:33;;;;;;;8.65;4.93;;;;;;;;;;8239615;28;20111;-76
2023/03/15 08:07:34;;;;;;;7.97;4.60;;;;;;;;;;8246995;28;20018;-77
2023/03/15 08:11:34;;;;;;;7.65;4.78;;;;;;;;;;8256142;28;20022;-77
2023/03/15 08:15:34;;;;;;;10.27;5.18;;;;;;;;;;8243443;28;20037;-78
2023/03/15 08:19:34;;;;;;;9.50;5.00;;;;;;;;;;8244640;28;20017;-76
2023/03/15 08:23:35;;;;;;;7.68;4.93;;;;;;;;;;8244067;28;20044;-76
2023/03/15 08:27:35;;;;;;;6.72;4.30;;;;;;;;;;8243763;28;20029;-76
2023/03/15 08:31:35;;;;;;;6.75;4.20;;;;;;;;;;8243758;28;21036;-77
2023/03/15 08:35:35;;;;;;;7.90;4.50;;;;;;;;;;8243576;28;20109;-77
2023/03/15 08:39:36;;;;;;;6.05;3.80;;;;;;;;;;8257097;28;20152;-77
2023/03/15 08:43:36;;;;;;;6.38;3.58;;;;;;;;;;8247392;28;20025;-77
2023/03/15 08:47:36;;;;;;;4.63;3.30;;;;;;;;;;8247199;28;20048;-77
2023/03/15 08:51:37;;;;;;;7.80;4.22;;;;;;;;;;8249872;28;20022;-77
2023/03/15 08:55:37;;;;;;;9.23;3.95;;;;;;;;;;8243585;28;20088;-77
2023/03/15 08:59:38;;;;;;;8.02;3.50;;;;;;;;;;8246320;28;20080;-77
2023/03/15 09:03:38;;;;;;;6.35;3.78;;;;;;;;;;8245866;28;20092;-78
2023/03/15 09:07:41;;;;;;;5.10;3.40;;;;;;;;;;8251868;28;20041;-77
2023/03/15 09:11:42;;;;;;;5.78;3.70;;;;;;;;;;8255100;28;20045;-78
2023/03/15 09:15:42;;;;;;;7.60;4.50;;;;;;;;;;8264470;28;20033;-78
2023/03/15 09:19:42;;;;;;;5.68;4.07;;;;;;;;;;8261697;28;20032;-78
2023/03/15 09:23:42;;;;;;;5.85;4.20;;;;;;;;;;8254762;28;20772;-78
2023/03/15 09:27:43;;;;;;;4.50;3.70;;;;;;;;;;8254461;28;20017;-77
2023/03/15 09:31:43;;;;;;;4.38;3.40;;;;;;;;;;8255828;28;20455;-77
2023/03/15 09:35:43;;;;;;;3.55;3.20;;;;;;;;;;8251015;28;20026;-77
2023/03/15 09:39:43;;;;;;;5.07;3.80;;;;;;;;;;8250505;28;20318;-77
2023/03/15 09:43:46;;;;;;;5.45;3.90;;;;;;;;;;8249434;28;20108;-77
2023/03/15 09:47:59;;;;;;;5.43;3.63;;;;;;;;;;8249797;28;20036;-77
2023/03/15 09:52:07;;;;;;;8.55;4.53;;;;;;;;;;8250728;28;20585;-77
2023/03/15 09:56:19;;;;;;;4.90;3.78;;;;;;;;;;8246885;28;20033;-77
2023/03/15 10:00:20;;;;;;;5.93;4.00;;;;;;;;;;8247625;28;20034;-77
2023/03/15 10:04:20;;;;;;;4.80;3.88;;;;;;;;;;8251915;28;20026;-77
2023/03/15 10:08:21;;;;;;;4.03;3.53;;;;;;;;;;8243478;28;20045;-77
2023/03/15 10:12:25;;;;;;;4.93;3.72;;;;;;;;;;8247426;28;20029;-77
2023/03/15 10:16:28;;;;;;;5.50;3.67;;;;;;;;;;8246189;28;20184;-77
2023/03/15 10:20:33;;;;;;;3.80;3.25;;;;;;;;;;8252596;28;20034;-77
2023/03/15 10:24:36;;;;;;;4.28;3.25;;;;;;;;;;8245653;28;20568;-77
2023/03/15 10:28:37;;;;;;;5.22;3.40;;;;;;;;;;8244363;28;20018;-77
2023/03/15 10:32:39;;;;;;;3.60;3.15;;;;;;;;;;8242999;28;20041;-78
2023/03/15 10:36:43;;;;;;;3.25;2.92;;;;;;;;;;8243504;28;20097;-77
2023/03/15 10:40:47;;;;;;;3.40;2.83;;;;;;;;;;8241844;28;20022;-77
2023/03/15 10:44:47;;;;;;;4.70;2.77;;;;;;;;;;8243225;28;20710;-77
2023/03/15 10:48:58;;;;;;;3.00;2.70;;;;;;;;;;8241803;28;20038;-78
2023/03/15 10:53:00;;;;;;;2.85;2.55;;;;;;;;;;8247306;28;20038;-77
2023/03/15 10:57:02;;;;;;;3.83;2.88;;;;;;;;;;8239891;28;20531;-77
2023/03/15 11:01:06;;;;;;;2.85;2.45;;;;;;;;;;8241356;28;20089;-79
2023/03/15 11:05:11;;;;;;;4.25;3.00;;;;;;;;;;8248362;28;20036;-78
2023/03/15 11:09:13;;;;;;;2.78;2.45;;;;;;;;;;8240438;28;20884;-77
2023/03/15 11:13:21;;;;;;;2.83;2.63;;;;;;;;;;8241074;28;20037;-78
2023/03/15 11:17:23;;;;;;;3.08;2.28;;;;;;;;;;8241869;28;20050;-77
2023/03/15 11:21:25;;;;;;;3.38;2.20;;;;;;;;;;8241612;28;20021;-78
2023/03/15 11:25:30;;;;;;;2.55;2.30;;;;;;;;;;8242907;28;20478;-78
2023/03/15 11:29:31;;;;;;;2.90;2.40;;;;;;;;;;8238777;28;20029;-78
2023/03/15 11:33:52;;;;;;;3.70;1.98;;;;;;;;;;8241332;28;20188;-78
2023/03/15 11:38:00;;;;;;;4.22;2.40;;;;;;;;;;8245491;28;20036;-78
2023/03/15 11:42:04;;;;;;;2.97;2.50;;;;;;;;;;8239318;28;20079;-78
2023/03/15 11:46:10;;;;;;;2.38;2.17;;;;;;;;;;8242402;28;20046;-78
2023/03/15 11:50:13;;;;;;;2.58;2.30;;;;;;;;;;8239755;28;20021;-78
2023/03/15 11:54:13;;;;;;;3.70;2.65;;;;;;;;;;8246606;28;20092;-77
2023/03/15 11:58:33;;;;;;;3.13;2.63;;;;;;;;;;8240116;28;20034;-77
2023/03/15 12:02:34;;;;;;;3.10;2.70;;;;;;;;;;8242023;28;20056;-78
2023/03/15 12:06:38;;;;;;;3.42;2.83;;;;;;;;;;8240810;28;20030;-78
2023/03/15 12:10:45;;;;;;;4.03;2.53;;;;;;;;;;8239408;28;20018;-78
2023/03/15 12:14:45;;;;;;;2.95;2.65;;;;;;;;;;8238937;28;20026;-78
2023/03/15 12:18:45;;;;;;;2.58;2.38;;;;;;;;;;8239244;28;20061;-78
2023/03/15 12:22:45;;;;;;;3.63;2.00;;;;;;;;;;8239278;28;20018;-78
2023/03/15 12:26:48;;;;;;;1.87;1.77;;;;;;;;;;8235897;28;20351;-78
2023/03/15 12:30:52;;;;;;;2.70;1.83;;;;;;;;;;8239641;28;20269;-78
2023/03/15 12:34:54;;;;;;;3.05;1.98;;;;;;;;;;8242132;28;20136;-78
2023/03/15 12:38:59;;;;;;;3.22;1.60;;;;;;;;;;8251664;28;20026;-78
2023/03/15 12:43:00;;;;;;;2.33;1.95;;;;;;;;;;8241497;28;20034;-78
2023/03/15 12:47:01;;;;;;;1.67;1.58;;;;;;;;;;8238258;28;20041;-78
2023/03/15 12:51:03;;;;;;;2.38;1.80;;;;;;;;;;8237363;28;20045;-78
2023/03/15 12:55:12;;;;;;;1.95;1.73;;;;;;;;;;8239320;28;20033;-78
2023/03/15 12:59:16;;;;;;;2.05;1.60;;;;;;;;;;8238560;28;20021;-78
2023/03/15 13:03:20;;;;;;;2.95;1.55;;;;;;;;;;8234543;28;20512;-78
2023/03/15 13:07:21;;;;;;;2.10;1.90;;;;;;;;;;8239153;28;20028;-78
2023/03/15 13:11:21;;;;;;;3.10;1.52;;;;;;;;;;8242866;28;20057;-78
2023/03/15 13:15:28;;;;;;;1.70;1.60;;;;;;;;;;8247412;28;20038;-78
2023/03/15 13:19:37;;;;;;;2.72;1.52;;;;;;;;;;8239342;28;20564;-79
2023/03/15 13:23:38;;;;;;;1.90;1.45;;;;;;;;;;8242394;28;20022;-78
2023/03/15 13:27:55;;;;;;;4.50;1.30;;;;;;;;;;8252757;28;20106;-78
2023/03/15 13:31:59;;;;;;;1.48;1.25;;;;;;;;;;8242982;28;20112;-78
2023/03/15 13:36:01;;;;;;;1.70;0.90;;;;;;;;;;8241170;28;20325;-78
2023/03/15 13:40:04;;;;;;;1.17;0.90;;;;;;;;;;8238153;28;20144;-78
2023/03/15 13:44:11;;;;;;;1.58;1.10;;;;;;;;;;8235890;28;20399;-78
2023/03/15 13:48:11;;;;;;;1.27;1.10;;;;;;;;;;8236276;28;20037;-78
2023/03/15 13:52:13;;;;;;;1.05;0.95;;;;;;;;;;8236393;28;20030;-78
2023/03/15 13:56:15;;;;;;;1.30;0.90;;;;;;;;;;8239359;28;20034;-78
2023/03/15 14:00:17;;;;;;;8.57;1.00;;;;;;;;;;8258092;28;20041;-78
2023/03/15 14:04:18;;;;;;;1.10;0.80;;;;;;;;;;8242947;28;20022;-78
2023/03/15 14:08:19;;;;;;;0.93;0.88;;;;;;;;;;8242698;28;20057;-77
2023/03/15 14:12:21;;;;;;;1.00;0.90;;;;;;;;;;8255080;28;20363;-78
2023/03/15 14:16:30;;;;;;;0.80;0.80;;;;;;;;;;8240857;28;20121;-78
2023/03/15 14:20:35;;;;;;;0.95;0.80;;;;;;;;;;8238928;28;20037;-78
2023/03/15 14:24:37;;;;;;;1.40;0.98;;;;;;;;;;8242794;28;20034;-78
2023/03/15 14:28:37;;;;;;;0.82;0.82;;;;;;;;;;8241943;28;20026;-82
2023/03/15 14:32:37;;;;;;;0.85;0.85;;;;;;;;;;8242586;28;20029;-78
2023/03/15 14:36:40;;;;;;;1.25;0.95;;;;;;;;;;8241725;28;20577;-78
2023/03/15 14:40:40;;;;;;;1.00;0.95;;;;;;;;;;8241928;28;20080;-78
2023/03/15 14:44:40;;;;;;;4.38;1.90;;;;;;;;;;8255626;28;20033;-78
2023/03/15 14:48:41;;;;;;;1.90;1.00;;;;;;;;;;8239134;28;20038;-78
2023/03/15 14:52:42;;;;;;;1.88;1.50;;;;;;;;;;8239447;28;20014;-78
2023/03/15 14:56:42;;;;;;;2.30;1.20;;;;;;;;;;8239432;28;20859;-78
2023/03/15 15:00:43;;;;;;;0.70;0.70;;;;;;;;;;8239149;28;20655;-78
2023/03/15 15:04:46;;;;;;;0.93;0.88;;;;;;;;;;8244341;28;20066;-78
2023/03/15 15:08:48;;;;;;;1.88;0.77;;;;;;;;;;8248890;28;20027;-78
2023/03/15 15:12:48;;;;;;;0.80;0.80;;;;;;;;;;8245113;28;20021;-78
2023/03/15 15:16:48;;;;;;;1.00;1.00;;;;;;;;;;8237916;28;20041;-79
2023/03/15 15:20:52;;;;;;;0.65;0.65;;;;;;;;;;8231226;28;20116;-78
2023/03/15 15:24:52;;;;;;;;;;;;;;;;;;8245318;28;20030;-78
2023/03/15 15:28:53;;;;;;;1.38;0.70;;;;;;;;;;8239554;28;19919;-78
2023/03/15 15:32:53;;;;;;;1.00;0.80;;;;;;;;;;8242954;28;21077;-78
2023/03/15 15:36:54;;;;;;;1.30;0.70;;;;;;;;;;8240597;28;20022;-78
2023/03/15 15:40:54;;;;;;;1.45;0.95;;;;;;;;;;8236265;28;20014;-78
2023/03/15 15:44:54;;;;;;;0.82;0.80;;;;;;;;;;8237939;28;20034;-78
2023/03/15 15:48:55;;;;;;;0.80;0.80;;;;;;;;;;8240589;28;20029;-78
2023/03/15 15:52:55;;;;;;;1.88;0.82;;;;;;;;;;8239459;28;20310;-78
2023/03/15 15:56:56;;;;;;;0.80;0.80;;;;;;;;;;8239791;28;20054;-78
2023/03/15 16:00:57;;;;;;;0.82;0.80;;;;;;;;;;8237299;28;20034;-79
2023/03/15 16:04:57;;;;;;;2.05;0.80;;;;;;;;;;8248880;28;20056;-79
2023/03/15 16:08:57;;;;;;;1.08;0.80;;;;;;;;;;8238001;28;20087;-78
2023/03/15 16:12:57;;;;;;;1.73;1.10;;;;;;;;;;8241059;28;20029;-79
2023/03/15 16:16:57;;;;;;;0.85;0.80;;;;;;;;;;8237200;28;20026;-78
2023/03/15 16:20:58;;;;;;;3.25;1.00;;;;;;;;;;8236045;28;20448;-78
2023/03/15 16:25:00;;;;;;;1.75;0.93;;;;;;;;;;8237710;28;20033;-78
2023/03/15 16:29:01;;;;;;;1.48;0.80;;;;;;;;;;8236543;28;20022;-79
2023/03/15 16:33:01;;;;;;;0.60;0.60;;;;;;;;;;8237395;28;20037;-78
2023/03/15 16:37:02;;;;;;;2.22;0.90;;;;;;;;;;8238825;28;20022;-79
2023/03/15 16:41:02;;;;;;;1.50;1.00;;;;;;;;;;8237147;28;20565;-78
2023/03/15 16:45:08;;;;;;;1.10;1.00;;;;;;;;;;8237308;28;20032;-79
2023/03/15 16:49:08;;;;;;;1.95;1.10;;;;;;;;;;8252410;28;20145;-78
2023/03/15 16:53:10;;;;;;;2.05;0.90;;;;;;;;;;8239371;28;20053;-79
2023/03/15 16:57:21;;;;;;;1.30;1.20;;;;;;;;;;8252179;28;20045;-78
2023/03/15 17:01:24;;;;;;;2.10;1.48;;;;;;;;;;8249564;28;20050;-78
2023/03/15 17:05:24;;;;;;;1.92;1.08;;;;;;;;;;8235454;28;20036;-78
2023/03/15 17:09:25;;;;;;;2.35;2.08;;;;;;;;;;8248845;28;20018;-72
2023/03/15 17:13:27;;;;;;;1.45;1.35;;;;;;;;;;8234108;28;20033;-72
2023/03/15 17:17:30;;;;;;;1.40;1.30;;;;;;;;;;8239285;28;20026;-78
2023/03/15 17:21:33;;;;;;;3.38;1.17;;;;;;;;;;8239097;28;20141;-78
2023/03/15 17:25:33;;;;;;;1.60;1.40;;;;;;;;;;8235730;28;20041;-78
2023/03/15 17:29:33;;;;;;;5.03;1.73;;;;;;;;;;8241804;28;20108;-78
2023/03/15 17:33:34;;;;;;;1.80;1.50;;;;;;;;;;8239620;28;20034;-79
2023/03/15 17:37:35;;;;;;;1.75;1.13;;;;;;;;;;8241904;28;20022;-78
2023/03/15 17:41:36;;;;;;;3.30;1.50;;;;;;;;;;8235775;28;20914;-79
2023/03/15 17:45:36;;;;;;;1.33;1.23;;;;;;;;;;8242223;28;20042;-78
2023/03/15 17:49:36;;;;;;;1.88;1.23;;;;;;;;;;8247861;28;20021;-78
2023/03/15 17:53:36;;;;;;;1.60;1.23;;;;;;;;;;8242581;28;20734;-78
2023/03/15 17:57:36;;;;;;;1.40;1.30;;;;;;;;;;8240742;28;20092;-79
2023/03/15 18:01:38;;;;;;;2.78;1.30;;;;;;;;;;8239080;28;20059;-79
2023/03/15 18:05:38;;;;;;;3.03;1.50;;;;;;;;;;8240185;28;20041;-79
2023/03/15 18:09:38;;;;;;;2.45;1.70;;;;;;;;;;8241694;28;20018;-78
2023/03/15 18:13:38;;;;;;;4.07;1.90;;;;;;;;;;8241694;28;20044;-78
2023/03/15 18:17:39;;;;;;;2.63;1.70;;;;;;;;;;8252374;28;20038;-77
2023/03/15 18:21:39;;;;;;;3.15;2.28;;;;;;;;;;8243095;28;20030;-77
2023/03/15 18:25:39;;;;;;;6.60;4.20;;;;;;;;;;8239792;28;20037;-77
2023/03/15 18:29:40;;;;;;;8.27;4.75;;;;;;;;;;8240734;28;20029;-77
2023/03/15 18:33:40;;;;;;;6.25;4.07;;;;;;;;;;8240206;28;20069;-77
2023/03/15 18:37:40;;;;;;;5.80;4.03;;;;;;;;;;8240401;28;20064;-76
2023/03/15 18:41:40;;;;;;;5.93;3.63;;;;;;;;;;8240263;28;20423;-77
2023/03/15 18:45:40;;;;;;;7.45;4.25;;;;;;;;;;8253907;28;20777;-77
2023/03/15 18:49:41;;;;;;;7.65;4.40;;;;;;;;;;8239891;28;20030;-77
2023/03/15 18:53:42;;;;;;;6.27;4.23;;;;;;;;;;8240547;28;20037;-77
2023/03/15 18:57:42;;;;;;;6.85;4.40;;;;;;;;;;8238946;28;20644;-76
2023/03/15 19:01:42;;;;;;;8.45;4.80;;;;;;;;;;8239406;28;20216;-77
2023/03/15 19:05:42;;;;;;;5.68;3.92;;;;;;;;;;8253465;28;20481;-76
2023/03/15 19:09:43;;;;;;;5.22;3.47;;;;;;;;;;8238630;28;20014;-76
2023/03/15 19:13:49;;;;;;;5.05;3.63;;;;;;;;;;8240554;28;20489;-77
2023/03/15 19:17:50;;;;;;;5.45;3.78;;;;;;;;;;8238565;28;20043;-77
2023/03/15 19:21:51;;;;;;;6.63;3.88;;;;;;;;;;8238933;28;20653;-77
2023/03/15 19:25:51;;;;;;;6.13;3.63;;;;;;;;;;8237314;28;20026;-77
2023/03/15 19:29:51;;;;;;;4.30;3.08;;;;;;;;;;8239201;28;20060;-77
2023/03/15 19:33:52;;;;;;;2.70;2.35;;;;;;;;;;8244332;28;20034;-77
2023/03/15 19:37:52;;;;;;;2.38;2.00;;;;;;;;;;8253606;28;20858;-77
2023/03/15 19:41:52;;;;;;;2.10;1.90;;;;;;;;;;8237539;28;22099;-77
2023/03/15 19:45:53;;;;;;;3.78;2.20;;;;;;;;;;8237082;28;20120;-77
2023/03/15 19:49:53;;;;;;;2.92;1.95;;;;;;;;;;8242286;28;20049;-77
2023/03/15 19:53:55;;;;;;;3.33;2.03;;;;;;;;;;8248419;28;20141;-77
2023/03/15 19:57:55;;;;;;;3.20;2.17;;;;;;;;;;8234951;28;20046;-77
2023/03/15 20:01:55;;;;;;;3.05;1.75;;;;;;;;;;8236875;28;20026;-77
2023/03/15 20:05:56;;;;;;;2.47;2.10;;;;;;;;;;8235022;28;20083;-77
2023/03/15 20:09:56;;;;;;;3.83;2.15;;;;;;;;;;8240956;28;20273;-78
2023/03/15 20:13:56;;;;;;;3.97;2.60;;;;;;;;;;8238115;28;20026;-77
2023/03/15 20:17:56;;;;;;;3.58;2.45;;;;;;;;;;8236082;28;20108;-77
2023/03/15 20:21:57;;;;;;;2.58;2.22;;;;;;;;;;8239537;28;20026;-77
2023/03/15 20:26:11;;;;;;;3.55;2.47;;;;;;;;;;8240902;28;20053;-77
2023/03/15 20:30:12;;;;;;;2.20;2.03;;;;;;;;;;8235062;28;20030;-77
2023/03/15 20:34:12;;;;;;;5.72;2.20;;;;;;;;;;8238117;28;20889;-77
2023/03/15 20:38:12;;;;;;;2.85;2.28;;;;;;;;;;8235699;28;20026;-77
2023/03/15 20:42:12;;;;;;;2.83;2.20;;;;;;;;;;8237730;28;20033;-77
2023/03/15 20:46:15;;;;;;;2.20;2.00;;;;;;;;;;8239351;28;20925;-77
2023/03/15 20:50:15;;;;;;;2.28;2.08;;;;;;;;;;8241201;28;20030;-77
2023/03/15 20:54:19;;;;;;;2.25;1.92;;;;;;;;;;8236844;28;20033;-77
2023/03/15 20:58:20;;;;;;;2.72;2.30;;;;;;;;;;8235183;28;20144;-76
2023/03/15 21:02:21;;;;;;;4.03;2.08;;;;;;;;;;8238110;28;20156;-77
2023/03/15 21:06:21;;;;;;;4.93;2.38;;;;;;;;;;8246671;28;20109;-77
2023/03/15 21:10:22;;;;;;;5.72;2.50;;;;;;;;;;8243042;28;20033;-77
2023/03/15 21:14:22;;;;;;;2.95;2.38;;;;;;;;;;8243744;28;20054;-77
2023/03/15 21:18:22;;;;;;;3.97;2.55;;;;;;;;;;8242692;28;20894;-77
2023/03/15 21:22:23;;;;;;;2.33;2.00;;;;;;;;;;8244294;28;21072;-77
2023/03/15 21:26:23;;;;;;;2.50;2.10;;;;;;;;;;8243697;28;20038;-77
2023/03/15 21:30:23;;;;;;;2.65;2.25;;;;;;;;;;8242391;28;20344;-77
2023/03/15 21:34:23;;;;;;;2.67;2.30;;;;;;;;;;8246085;28;20036;-77
2023/03/15 21:38:25;;;;;;;3.17;2.17;;;;;;;;;;8246198;28;20029;-77
2023/03/15 21:42:25;;;;;;;2.92;2.30;;;;;;;;;;8246256;28;20388;-77
2023/03/15 21:46:25;;;;;;;3.10;2.30;;;;;;;;;;8248995;28;20085;-77
2023/03/15 21:50:25;;;;;;;3.00;2.53;;;;;;;;;;8241077;28;20148;-77
2023/03/15 21:54:26;;;;;;;2.97;2.50;;;;;;;;;;8239454;28;20025;-77
2023/03/15 21:58:26;;;;;;;3.58;2.33;;;;;;;;;;8242107;28;20029;-76
2023/03/15 22:02:26;;;;;;;4.18;2.53;;;;;;;;;;8248233;28;20147;-77
2023/03/15 22:06:26;;;;;;;3.47;2.65;;;;;;;;;;8243643;28;20830;-77
2023/03/15 22:10:30;;;;;;;3.63;2.47;;;;;;;;;;8243609;28;20044;-76
2023/03/15 22:14:30;;;;;;;3.50;2.30;;;;;;;;;;8244412;28;22096;-77
2023/03/15 22:18:30;;;;;;;3.22;2.30;;;;;;;;;;8241323;28;20048;-77
2023/03/15 22:22:31;;;;;;;3.55;2.17;;;;;;;;;;8220959;28;20934;-77
2023/03/15 22:26:31;;;;;;;3.03;2.10;;;;;;;;;;8243142;28;20088;-77
2023/03/15 22:30:31;;;;;;;3.75;2.42;;;;;;;;;;8225259;28;20038;-77
2023/03/15 22:34:33;;;;;;;2.40;2.17;;;;;;;;;;8224862;28;21002;-77
2023/03/15 22:38:36;;;;;;;2.55;2.25;;;;;;;;;;8250993;28;20033;-77
2023/03/15 22:42:36;;;;;;;3.58;2.28;;;;;;;;;;8243934;28;20099;-77
2023/03/15 22:46:37;;;;;;;2.60;2.40;;;;;;;;;;8243594;28;20046;-77
2023/03/15 22:50:37;;;;;;;4.87;2.20;;;;;;;;;;8242490;28;20022;-76
2023/03/15 22:54:37;;;;;;;5.25;2.10;;;;;;;;;;8243719;28;20285;-77
2023/03/15 22:58:37;;;;;;;2.77;2.07;;;;;;;;;;8243220;28;20515;-77
2023/03/15 23:02:41;;;;;;;3.85;2.22;;;;;;;;;;8235747;28;21590;-77
2023/03/15 23:06:41;;;;;;;2.00;1.80;;;;;;;;;;8237717;28;20940;-77
2023/03/15 23:10:42;;;;;;;2.27;2.07;;;;;;;;;;8239025;28;20575;-77
2023/03/15 23:14:43;;;;;;;2.92;2.15;;;;;;;;;;8240078;28;21279;-78
2023/03/15 23:18:43;;;;;;;2.63;2.38;;;;;;;;;;8239238;28;20045;-77
2023/03/15 23:22:44;;;;;;;5.32;2.50;;;;;;;;;;8240726;28;20057;-77
2023/03/15 23:26:44;;;;;;;3.05;2.58;;;;;;;;;;8239630;28;20606;-77
2023/03/15 23:30:44;;;;;;;4.17;2.63;;;;;;;;;;8239437;28;20121;-77
2023/03/15 23:34:45;;;;;;;2.72;2.45;;;;;;;;;;8239838;28;20300;-77
2023/03/15 23:38:45;;;;;;;4.93;2.80;;;;;;;;;;8239794;28;20029;-78
2023/03/15 23:42:45;;;;;;;3.42;3.00;;;;;;;;;;8239299;28;20030;-77
2023/03/15 23:46:45;;;;;;;3.63;3.00;;;;;;;;;;8255124;28;20156;-77
2023/03/15 23:50:52;;;;;;;3.90;3.28;;;;;;;;;;8241173;28;20054;-77
2023/03/15 23:54:52;;;;;;;3.95;3.10;;;;;;;;;;8241119;28;20018;-77
2023/03/15 23:58:53;;;;;;;4.45;3.35;;;;;;;;;;8240282;28;20022;-77
